Time;durP1;ratioP1;P1;durP2;ratioP2;P2;SDS_P1;SDS_P2;PMS_P1;PMS_P2;Temp;Humidity;BMP_temperature;BMP_pressure;BME280_temperature;BME280_humidity;BME280_pressure;Samples;Min_cycle;Max_cycle;Signal;HPM_P1;HPM_P2
2021/07/07 00:01:24;;;;;;;19.70;15.82;;;27.20;70.20;;;;;;4883011;29;20090;-62
2021/07/07 00:03:50;;;;;;;17.05;14.02;;;27.20;70.20;;;;;;4894712;29;20167;-62
2021/07/07 00:07:06;;;;;;;18.17;16.25;;;27.20;70.30;;;;;;4895363;29;20608;-62
2021/07/07 00:09:34;;;;;;;17.08;15.27;;;27.20;70.10;;;;;;4895647;29;20096;-62
2021/07/07 03:54:24;;;;;;;15.27;13.50;;;26.90;68.30;;;;;;4876599;29;20555;-61
2021/07/07 03:56:55;;;;;;;14.88;13.32;;;26.80;68.40;;;;;;4876706;29;20206;-62
2021/07/07 03:59:21;;;;;;;18.67;13.02;;;26.80;68.40;;;;;;4876463;29;20057;-62
2021/07/07 04:01:49;;;;;;;13.80;12.50;;;26.90;68.40;;;;;;4875604;29;20384;-62
2021/07/07 04:04:16;;;;;;;17.05;13.82;;;26.90;68.50;;;;;;4876476;29;20139;-61
2021/07/07 04:06:44;;;;;;;13.75;12.35;;;26.90;68.50;;;;;;4876753;29;20108;-62
2021/07/07 04:09:10;;;;;;;15.40;13.82;;;26.90;68.70;;;;;;4876372;29;20053;-62
2021/07/07 04:11:37;;;;;;;15.15;13.70;;;26.90;68.80;;;;;;4880725;29;20569;-61
2021/07/07 04:14:03;;;;;;;19.73;14.10;;;27.00;69.00;;;;;;4876589;29;20069;-61
2021/07/07 04:16:29;;;;;;;14.50;13.10;;;26.90;69.00;;;;;;4876352;29;20071;-62
2021/07/07 04:18:55;;;;;;;17.88;14.50;;;26.90;68.90;;;;;;4881244;29;20159;-61
2021/07/07 04:21:21;;;;;;;13.93;12.65;;;26.90;68.80;;;;;;4883672;29;20148;-61
2021/07/07 04:23:47;;;;;;;15.68;12.25;;;27.00;69.00;;;;;;4875985;29;20057;-62
2021/07/07 04:26:13;;;;;;;17.80;12.80;;;27.00;68.90;;;;;;4876389;29;20184;-62
2021/07/07 04:28:39;;;;;;;14.38;12.80;;;27.00;69.00;;;;;;4876102;29;20064;-61
2021/07/07 04:31:06;;;;;;;14.93;13.50;;;27.00;69.00;;;;;;4876196;29;20072;-62
2021/07/07 04:33:32;;;;;;;17.52;13.38;;;27.00;69.10;;;;;;4876423;29;20100;-61
2021/07/07 04:35:58;;;;;;;15.38;13.93;;;27.00;69.20;;;;;;4875997;29;20088;-62
2021/07/07 04:38:24;;;;;;;14.75;13.20;;;27.00;69.10;;;;;;4875700;29;20445;-61
2021/07/07 04:40:50;;;;;;;14.10;12.60;;;27.00;69.20;;;;;;4885361;29;20173;-61
2021/07/07 04:43:16;;;;;;;15.88;14.20;;;27.00;69.20;;;;;;4877059;29;20151;-61
2021/07/07 04:45:42;;;;;;;14.85;13.50;;;27.00;69.30;;;;;;4875899;29;20061;-61
2021/07/07 04:48:08;;;;;;;16.42;13.98;;;27.00;69.40;;;;;;4875769;29;20143;-62
2021/07/07 04:50:36;;;;;;;20.20;13.50;;;27.00;69.40;;;;;;4875979;29;20500;-61
2021/07/07 04:53:02;;;;;;;14.25;12.75;;;27.10;69.60;;;;;;4875632;29;20566;-62
2021/07/07 04:55:28;;;;;;;15.48;13.20;;;27.00;69.80;;;;;;4875537;29;20092;-61
2021/07/07 04:57:54;;;;;;;13.90;12.60;;;27.10;69.60;;;;;;4875501;29;20458;-61
2021/07/07 05:00:22;;;;;;;15.38;13.50;;;27.10;69.70;;;;;;4875637;29;20061;-62
2021/07/07 05:02:50;;;;;;;15.35;13.65;;;27.10;69.70;;;;;;4875290;29;20088;-62
2021/07/07 05:05:17;;;;;;;13.73;12.52;;;27.10;69.80;;;;;;4875619;29;20143;-61
2021/07/07 05:07:45;;;;;;;16.85;13.15;;;27.10;69.80;;;;;;4875262;29;20423;-62
2021/07/07 05:10:12;;;;;;;14.40;12.32;;;27.10;69.80;;;;;;4879617;29;20186;-62
2021/07/07 05:12:40;;;;;;;13.82;12.50;;;27.10;70.00;;;;;;4877725;29;20513;-62
2021/07/07 05:15:07;;;;;;;15.27;12.85;;;27.10;70.00;;;;;;4898203;29;20060;-57
2021/07/07 05:17:34;;;;;;;13.25;12.15;;;27.10;70.20;;;;;;4894414;29;20147;-56
2021/07/07 05:20:00;;;;;;;15.48;12.80;;;27.10;70.20;;;;;;4897108;29;20598;-58
2021/07/07 05:22:27;;;;;;;13.68;12.32;;;27.10;70.30;;;;;;4892967;29;20052;-61
2021/07/07 05:24:53;;;;;;;25.30;11.55;;;27.10;70.60;;;;;;4879844;29;20682;-60
2021/07/07 05:27:19;;;;;;;14.50;11.05;;;27.10;70.60;;;;;;4879679;29;20049;-58
2021/07/07 05:29:45;;;;;;;10.73;9.27;;;27.10;70.60;;;;;;4874551;29;20432;-58
2021/07/07 05:32:12;;;;;;;12.90;9.07;;;27.10;70.90;;;;;;4885012;29;20061;-57
2021/07/07 05:34:40;;;;;;;10.40;9.48;;;27.10;71.00;;;;;;4875050;29;20057;-58
2021/07/07 05:37:06;;;;;;;10.27;9.27;;;27.10;71.00;;;;;;4875063;29;20061;-58
2021/07/07 05:39:32;;;;;;;9.93;9.10;;;27.10;71.10;;;;;;4875753;29;20140;-58
2021/07/07 05:41:58;;;;;;;15.98;8.95;;;27.10;71.20;;;;;;4885213;29;20211;-58
2021/07/07 05:44:25;;;;;;;10.38;8.55;;;27.10;71.50;;;;;;4880201;29;20574;-59
2021/07/07 05:46:51;;;;;;;10.15;8.73;;;27.20;71.40;;;;;;4883669;29;20064;-60
2021/07/07 05:49:17;;;;;;;12.77;9.52;;;27.20;71.50;;;;;;4874780;29;20246;-60
2021/07/07 05:51:43;;;;;;;10.48;9.30;;;27.20;71.50;;;;;;4874886;29;20063;-59
2021/07/07 05:54:09;;;;;;;12.43;9.20;;;27.20;71.40;;;;;;4874541;29;20133;-59
2021/07/07 05:56:35;;;;;;;11.23;8.90;;;27.10;71.40;;;;;;4874852;29;20140;-59
2021/07/07 05:59:01;;;;;;;12.82;8.85;;;27.20;71.60;;;;;;4874600;29;20132;-59
2021/07/07 06:01:27;;;;;;;11.65;9.63;;;27.20;71.60;;;;;;4874264;29;20990;-59
2021/07/07 06:03:53;;;;;;;13.25;8.65;;;27.20;71.60;;;;;;4874007;29;20065;-59
2021/07/07 06:06:19;;;;;;;9.00;7.90;;;27.20;71.60;;;;;;4874737;29;20092;-59
2021/07/07 06:08:45;;;;;;;8.98;8.18;;;27.20;71.70;;;;;;4874721;29;20509;-58
2021/07/07 06:11:11;;;;;;;13.77;8.70;;;27.20;71.70;;;;;;4876939;29;20093;-59
2021/07/07 06:13:38;;;;;;;14.13;8.57;;;27.20;71.80;;;;;;4873311;29;20057;-59
2021/07/07 06:16:04;;;;;;;11.73;8.57;;;27.20;72.00;;;;;;4889501;29;20155;-60
2021/07/07 06:18:32;;;;;;;10.27;8.48;;;27.10;72.00;;;;;;4880460;29;20139;-60
2021/07/07 06:20:58;;;;;;;10.32;8.65;;;27.10;72.00;;;;;;4893010;29;20071;-60
2021/07/07 06:23:24;;;;;;;9.95;9.00;;;27.10;72.10;;;;;;4884630;29;20164;-60
2021/07/07 06:25:50;;;;;;;12.40;8.77;;;27.10;72.30;;;;;;4889058;29;20148;-58
2021/07/07 06:28:16;;;;;;;12.65;8.75;;;27.20;72.50;;;;;;4878030;29;20523;-60
2021/07/07 06:30:43;;;;;;;9.90;7.70;;;27.20;72.50;;;;;;4878528;29;20148;-59
2021/07/07 06:33:08;;;;;;;9.55;7.93;;;27.10;72.40;;;;;;4878174;29;20060;-59
2021/07/07 06:35:36;;;;;;;9.05;8.05;;;27.10;72.30;;;;;;4878458;29;20053;-59
2021/07/07 06:38:04;;;;;;;9.10;8.23;;;27.10;72.30;;;;;;4877946;29;20065;-60
2021/07/07 06:40:30;;;;;;;13.13;8.75;;;27.10;72.30;;;;;;4886334;29;20451;-59
2021/07/07 06:42:56;;;;;;;12.82;8.13;;;27.10;72.30;;;;;;4882007;29;20053;-60
2021/07/07 06:45:25;;;;;;;10.40;7.43;;;27.10;72.30;;;;;;4877831;29;20143;-68
2021/07/07 06:47:51;;;;;;;11.55;7.53;;;27.10;72.00;;;;;;4877998;29;20053;-61
2021/07/07 06:50:19;;;;;;;7.82;7.05;;;27.10;71.80;;;;;;4877999;29;20068;-63
2021/07/07 06:52:46;;;;;;;15.13;8.50;;;27.10;71.70;;;;;;4877811;29;20183;-63
2021/07/07 06:55:12;;;;;;;7.47;6.95;;;27.10;71.40;;;;;;4877710;29;20064;-64
2021/07/07 06:57:39;;;;;;;16.77;7.57;;;27.10;71.30;;;;;;4877768;29;20529;-62
2021/07/07 07:00:10;;;;;;;17.38;7.72;;;27.10;71.20;;;;;;4877798;29;20552;-71
2021/07/07 07:02:36;;;;;;;8.38;7.63;;;27.20;71.10;;;;;;4880269;29;20064;-72
2021/07/07 07:05:05;;;;;;;10.57;7.65;;;27.10;71.70;;;;;;4896522;29;20108;-66
2021/07/07 07:07:31;;;;;;;10.48;8.00;;;27.10;71.10;;;;;;4895253;29;20855;-68
2021/07/07 07:09:59;;;;;;;8.27;7.43;;;27.10;71.10;;;;;;4888179;29;20496;-67
2021/07/07 07:12:29;;;;;;;12.98;8.10;;;27.10;71.70;;;;;;4877724;29;20057;-65
2021/07/07 07:14:56;;;;;;;11.50;9.10;;;27.10;71.20;;;;;;4876354;29;20099;-67
2021/07/07 07:17:23;;;;;;;20.13;8.25;;;27.00;71.30;;;;;;4891215;29;20060;-69
2021/07/07 07:19:49;;;;;;;10.80;8.38;;;27.10;71.30;;;;;;4894929;29;20134;-69
2021/07/07 07:22:16;;;;;;;11.68;9.18;;;27.10;71.40;;;;;;4876494;29;20545;-69
2021/07/07 07:24:46;;;;;;;11.35;8.90;;;27.10;71.00;;;;;;4877267;29;20065;-71
2021/07/07 07:27:13;;;;;;;9.52;8.75;;;27.10;71.20;;;;;;4882469;29;20553;-68
2021/07/07 07:29:41;;;;;;;16.58;9.85;;;27.10;71.20;;;;;;4895835;29;20572;-70
2021/07/07 07:32:07;;;;;;;13.93;9.57;;;27.10;71.10;;;;;;4894877;29;20068;-74
2021/07/07 07:34:34;;;;;;;12.95;8.80;;;27.10;71.20;;;;;;4894446;29;20060;-69
2021/07/07 07:37:04;;;;;;;13.77;8.27;;;27.10;71.30;;;;;;4894622;29;20094;-68
2021/07/07 07:39:44;;;;;;;14.32;10.07;;;27.10;71.10;;;;;;4896091;29;20063;-70
2021/07/07 07:42:16;;;;;;;11.43;9.50;;;27.10;71.60;;;;;;4895118;29;20182;-66
2021/07/07 07:44:43;;;;;;;11.02;9.35;;;27.00;72.50;;;;;;4876622;29;20072;-67
2021/07/07 07:47:10;;;;;;;14.45;10.65;;;27.00;72.00;;;;;;4875833;29;20060;-67
2021/07/07 07:49:37;;;;;;;13.00;11.35;;;27.10;72.00;;;;;;4876944;29;20144;-67
2021/07/07 07:52:05;;;;;;;15.48;11.20;;;27.10;72.30;;;;;;4875998;29;20095;-67
2021/07/07 07:54:32;;;;;;;15.95;12.85;;;27.20;72.40;;;;;;4877099;29;20060;-67
2021/07/07 07:57:00;;;;;;;18.17;12.27;;;27.20;71.70;;;;;;4876520;29;20160;-67
2021/07/07 07:59:26;;;;;;;15.93;12.85;;;27.20;71.80;;;;;;4859684;29;20056;-67
2021/07/07 08:01:52;;;;;;;16.13;12.73;;;27.30;71.80;;;;;;4875312;29;20061;-67
2021/07/07 08:04:19;;;;;;;15.85;13.45;;;27.20;71.80;;;;;;4876242;29;20188;-67
2021/07/07 08:06:46;;;;;;;15.98;14.30;;;27.20;71.80;;;;;;4875096;29;20065;-67
2021/07/07 08:09:12;;;;;;;16.65;14.55;;;27.20;71.90;;;;;;4874995;29;20085;-67
2021/07/07 08:11:39;;;;;;;17.70;14.77;;;27.20;72.00;;;;;;4879451;29;20056;-67
2021/07/07 08:14:05;;;;;;;17.65;14.13;;;27.20;72.00;;;;;;4876287;29;20061;-67
2021/07/07 08:16:31;;;;;;;16.77;15.05;;;27.20;72.10;;;;;;4876399;29;20738;-67
2021/07/07 08:18:57;;;;;;;17.25;15.23;;;27.20;72.20;;;;;;4880556;29;20578;-67
2021/07/07 08:21:23;;;;;;;19.70;16.25;;;27.20;72.20;;;;;;4883267;29;20521;-67
2021/07/07 08:23:49;;;;;;;17.35;15.63;;;27.20;72.20;;;;;;4874780;29;20609;-67
2021/07/07 08:26:18;;;;;;;20.58;15.60;;;27.20;72.20;;;;;;4875850;29;20596;-67
2021/07/07 08:28:44;;;;;;;16.27;14.50;;;27.20;72.20;;;;;;4876088;29;20568;-67
2021/07/07 08:31:10;;;;;;;18.63;16.63;;;27.20;72.40;;;;;;4875852;29;20057;-67
2021/07/07 08:33:36;;;;;;;18.70;16.13;;;27.20;72.40;;;;;;4876217;29;20072;-67
2021/07/07 08:36:02;;;;;;;21.75;17.48;;;27.20;72.50;;;;;;4875662;29;20210;-67
2021/07/07 08:38:28;;;;;;;18.30;16.38;;;27.20;72.40;;;;;;4876060;29;20167;-67
2021/07/07 08:40:54;;;;;;;17.88;16.08;;;27.20;72.40;;;;;;4887465;29;20147;-67
2021/07/07 08:43:20;;;;;;;18.42;16.80;;;27.20;72.40;;;;;;4876595;29;20144;-67
2021/07/07 08:45:46;;;;;;;17.67;15.48;;;27.20;72.40;;;;;;4875302;29;20677;-67
2021/07/07 08:48:12;;;;;;;17.90;16.08;;;27.20;72.50;;;;;;4875280;29;20148;-67
2021/07/07 08:50:38;;;;;;;19.55;17.45;;;27.20;72.50;;;;;;4874477;29;20520;-67
2021/07/07 08:53:06;;;;;;;17.85;15.95;;;27.30;72.50;;;;;;4874097;29;20056;-67
2021/07/07 08:55:33;;;;;;;16.92;15.15;;;27.20;72.50;;;;;;4874647;29;20190;-67
2021/07/07 08:57:59;;;;;;;19.15;17.17;;;27.30;72.60;;;;;;4874555;29;20482;-67
2021/07/07 09:00:33;;;;;;;18.58;16.85;;;27.30;72.60;;;;;;4875743;29;20403;-67
2021/07/07 09:03:10;;;;;;;20.58;17.30;;;27.20;72.50;;;;;;4882054;29;20144;-67
2021/07/07 09:05:48;;;;;;;22.35;16.60;;;27.30;72.60;;;;;;4894256;29;20065;-67
2021/07/07 09:08:20;;;;;;;17.98;15.60;;;27.30;72.60;;;;;;4894069;29;20060;-67
2021/07/07 09:10:46;;;;;;;20.70;17.52;;;27.30;72.60;;;;;;4890988;29;20217;-67
2021/07/07 09:13:14;;;;;;;20.65;17.17;;;27.30;73.10;;;;;;4875253;29;20875;-67
2021/07/07 09:15:41;;;;;;;18.38;16.60;;;27.30;72.60;;;;;;4858306;29;20065;-67
2021/07/07 09:18:07;;;;;;;17.15;15.35;;;27.30;72.60;;;;;;4874284;29;20061;-67
2021/07/07 09:20:37;;;;;;;18.55;16.70;;;27.30;72.60;;;;;;4888230;29;20071;-67
2021/07/07 09:23:30;;;;;;;16.27;14.73;;;27.30;72.60;;;;;;4875317;29;20065;-67
2021/07/07 09:26:02;;;;;;;19.77;16.73;;;27.30;72.80;;;;;;4884952;29;20123;-67
2021/07/07 09:28:28;;;;;;;;;;;27.30;72.70;;;;;;4893629;29;20078;-67
2021/07/07 09:30:59;;;;;;;19.10;17.27;;;27.30;72.60;;;;;;4893495;29;20009;-67
2021/07/07 09:33:27;;;;;;;22.00;17.50;;;27.30;72.50;;;;;;4893339;29;20116;-67
2021/07/07 09:36:20;;;;;;;20.45;17.08;;;27.30;72.50;;;;;;4893372;29;20301;-67
2021/07/07 09:38:47;;;;;;;19.58;15.48;;;27.30;72.40;;;;;;4893378;29;20063;-67
2021/07/07 09:41:13;;;;;;;17.92;16.02;;;27.30;72.60;;;;;;4903733;29;20528;-68
2021/07/07 09:43:54;;;;;;;18.15;16.25;;;27.30;72.80;;;;;;4873610;29;20090;-68
2021/07/07 09:46:22;;;;;;;19.52;17.63;;;27.30;72.70;;;;;;4874488;29;20148;-67
2021/07/07 09:48:50;;;;;;;19.58;17.52;;;27.30;72.60;;;;;;4874564;29;20069;-67
2021/07/07 09:51:17;;;;;;;18.92;16.27;;;27.30;72.60;;;;;;4874717;29;20220;-67
2021/07/07 09:53:44;;;;;;;17.00;15.50;;;27.30;72.60;;;;;;4873331;29;20117;-67
2021/07/07 09:56:10;;;;;;;19.27;15.68;;;27.30;72.90;;;;;;4874591;29;20060;-67
2021/07/07 09:58:36;;;;;;;19.10;17.10;;;27.30;73.10;;;;;;4873492;29;20057;-67
2021/07/07 10:01:03;;;;;;;21.85;17.23;;;27.30;72.70;;;;;;4873360;29;20068;-67
2021/07/07 10:03:31;;;;;;;18.05;16.35;;;27.30;72.70;;;;;;4872710;29;20068;-67
2021/07/07 10:05:58;;;;;;;16.90;15.15;;;27.30;72.60;;;;;;4874536;29;20060;-68
2021/07/07 10:08:25;;;;;;;20.20;17.63;;;27.30;72.70;;;;;;4873385;29;20143;-67
2021/07/07 10:10:53;;;;;;;20.13;18.13;;;27.30;72.60;;;;;;4879075;29;20060;-67
2021/07/07 10:13:20;;;;;;;19.73;16.63;;;27.30;72.60;;;;;;4873199;29;20091;-67
2021/07/07 10:15:48;;;;;;;24.95;18.17;;;27.30;72.60;;;;;;4873264;29;20141;-67
2021/07/07 10:18:14;;;;;;;17.67;15.95;;;27.30;72.60;;;;;;4874537;29;20057;-67
2021/07/07 10:20:40;;;;;;;17.95;16.10;;;27.30;72.70;;;;;;4886593;29;20065;-67
2021/07/07 10:23:09;;;;;;;19.27;17.17;;;27.30;72.60;;;;;;4873793;29;20064;-68
2021/07/07 10:25:36;;;;;;;18.40;16.80;;;27.30;72.50;;;;;;4880780;29;20090;-67
2021/07/07 10:28:08;;;;;;;17.45;15.70;;;27.30;72.50;;;;;;4892666;29;20758;-67
2021/07/07 10:30:52;;;;;;;23.77;16.42;;;27.30;72.40;;;;;;4892711;29;20925;-67
2021/07/07 10:33:20;;;;;;;19.48;16.45;;;27.30;72.30;;;;;;4891130;29;20869;-67
2021/07/07 10:35:46;;;;;;;17.50;15.63;;;27.30;72.30;;;;;;4892539;29;20058;-67
2021/07/07 10:38:16;;;;;;;16.73;15.10;;;27.40;72.40;;;;;;4892633;29;20057;-68
2021/07/07 10:40:51;;;;;;;17.02;15.48;;;27.40;72.50;;;;;;4902805;29;20087;-67
2021/07/07 10:43:45;;;;;;;18.35;15.32;;;27.40;72.90;;;;;;4876070;29;20064;-68
2021/07/07 10:46:13;;;;;;;18.83;15.52;;;27.40;72.50;;;;;;4872726;29;20437;-67
2021/07/07 10:48:39;;;;;;;17.98;16.27;;;27.40;73.10;;;;;;4872519;29;20094;-67
2021/07/07 10:51:26;;;;;;;18.30;15.93;;;27.30;72.40;;;;;;4874126;29;20192;-67
2021/07/07 10:53:54;;;;;;;18.10;16.38;;;27.40;72.40;;;;;;4873959;29;20144;-67
2021/07/07 10:56:44;;;;;;;16.60;14.90;;;27.40;72.40;;;;;;4874069;29;20089;-67
2021/07/07 10:59:32;;;;;;;18.17;16.40;;;27.40;73.30;;;;;;4872908;29;20088;-67
2021/07/07 11:02:15;;;;;;;18.55;15.63;;;27.40;72.40;;;;;;4874333;29;20449;-67
2021/07/07 11:04:46;;;;;;;18.13;16.42;;;27.40;72.40;;;;;;4873724;29;20101;-67
2021/07/07 11:07:28;;;;;;;15.45;13.90;;;27.40;72.40;;;;;;4873886;29;20065;-68
2021/07/07 11:10:02;;;;;;;17.13;15.38;;;27.40;73.40;;;;;;4859295;29;20143;-67
2021/07/07 11:12:39;;;;;;;17.58;15.70;;;27.40;72.70;;;;;;4877222;29;20097;-67
2021/07/07 11:15:09;;;;;;;17.17;15.38;;;27.40;72.40;;;;;;4876236;29;20534;-67
2021/07/07 11:17:43;;;;;;;17.45;15.68;;;27.40;72.40;;;;;;4877240;29;20140;-68
2021/07/07 11:20:29;;;;;;;16.80;14.38;;;27.40;72.40;;;;;;4888757;29;20068;-68
2021/07/07 11:23:09;;;;;;;15.20;13.57;;;27.40;72.50;;;;;;4877277;29;20065;-68
2021/07/07 11:25:37;;;;;;;16.17;14.45;;;27.50;73.00;;;;;;4882631;29;20056;-68
2021/07/07 11:28:11;;;;;;;18.80;15.23;;;27.50;72.50;;;;;;4895931;29;20064;-68
2021/07/07 11:30:38;;;;;;;16.48;13.80;;;27.50;72.40;;;;;;4894687;29;20139;-68
2021/07/07 11:33:05;;;;;;;15.57;14.18;;;27.50;72.80;;;;;;4895508;29;20064;-68
2021/07/07 11:35:37;;;;;;;17.50;15.68;;;27.50;73.10;;;;;;4895804;29;20057;-68
2021/07/07 11:38:05;;;;;;;17.05;14.73;;;27.50;72.60;;;;;;4896107;29;20065;-68
2021/07/07 11:40:39;;;;;;;21.27;14.95;;;27.50;72.20;;;;;;4904244;29;20056;-68
2021/07/07 11:43:09;;;;;;;15.60;13.55;;;27.50;72.10;;;;;;4881015;29;20065;-68
2021/07/07 11:45:36;;;;;;;15.35;13.75;;;27.50;72.80;;;;;;4875769;29;20061;-68
2021/07/07 11:50:50;;;;;;;14.10;12.50;;;27.60;73.00;;;;;;4875112;29;20065;-68
2021/07/07 11:53:16;;;;;;;16.75;13.80;;;27.60;73.00;;;;;;4876676;29;20061;-68
2021/07/07 11:55:45;;;;;;;15.10;13.50;;;27.50;72.20;;;;;;4875282;29;20488;-68
2021/07/07 11:58:25;;;;;;;15.07;13.55;;;27.60;72.20;;;;;;4875178;29;20189;-67
2021/07/07 12:00:53;;;;;;;14.05;12.73;;;27.50;72.20;;;;;;4876563;29;20071;-68
2021/07/07 12:03:22;;;;;;;14.82;13.32;;;27.60;72.30;;;;;;4876769;29;20481;-68
2021/07/07 12:05:50;;;;;;;16.33;14.73;;;27.60;72.10;;;;;;4875112;29;20065;-68
2021/07/07 12:08:20;;;;;;;15.52;14.05;;;27.60;72.00;;;;;;4875286;29;20057;-68
2021/07/07 12:10:47;;;;;;;18.55;12.65;;;27.50;71.80;;;;;;4880415;29;20165;-68
2021/07/07 12:13:24;;;;;;;14.10;12.80;;;27.60;72.20;;;;;;4874740;29;20061;-67
2021/07/07 12:15:50;;;;;;;16.55;13.73;;;27.60;73.50;;;;;;4882332;29;20148;-68
2021/07/07 12:18:27;;;;;;;14.02;12.73;;;27.60;72.10;;;;;;4894580;29;20150;-68
2021/07/07 12:20:54;;;;;;;15.52;13.80;;;27.60;71.90;;;;;;4885950;29;20181;-68
2021/07/07 12:23:21;;;;;;;14.80;13.55;;;27.60;71.60;;;;;;4875969;29;20064;-68
2021/07/07 12:26:01;;;;;;;14.35;13.05;;;27.60;72.00;;;;;;4876139;29;20506;-68
2021/07/07 12:28:30;;;;;;;13.50;12.07;;;27.60;71.20;;;;;;4874774;29;20128;-68
2021/07/07 12:30:58;;;;;;;16.08;14.40;;;27.60;71.30;;;;;;4876064;29;20513;-68
2021/07/07 12:33:28;;;;;;;14.93;13.27;;;27.60;71.30;;;;;;4875718;29;20084;-68
2021/07/07 12:35:54;;;;;;;14.65;13.25;;;27.60;71.20;;;;;;4874756;29;20429;-68
2021/07/07 12:38:21;;;;;;;14.65;13.27;;;27.60;71.20;;;;;;4875848;29;20160;-68
2021/07/07 12:40:58;;;;;;;15.73;13.48;;;27.60;71.10;;;;;;4885250;29;20064;-68
2021/07/07 12:43:42;;;;;;;14.45;12.20;;;27.70;71.10;;;;;;4874870;29;20561;-68
2021/07/07 12:46:09;;;;;;;13.80;12.52;;;27.60;71.20;;;;;;4875829;29;20096;-68
2021/07/07 12:48:52;;;;;;;13.63;12.48;;;27.60;71.10;;;;;;4875701;29;20549;-68
2021/07/07 12:51:24;;;;;;;13.88;12.63;;;27.70;71.00;;;;;;4875611;29;20061;-68
2021/07/07 12:53:51;;;;;;;13.63;12.35;;;27.60;72.00;;;;;;4875558;29;20151;-67
2021/07/07 12:56:17;;;;;;;14.75;13.25;;;27.60;71.20;;;;;;4875495;29;20537;-68
2021/07/07 12:58:44;;;;;;;14.68;13.25;;;27.60;71.00;;;;;;4875790;29;20937;-68
2021/07/07 13:01:25;;;;;;;14.95;13.57;;;27.60;71.00;;;;;;4875500;29;20165;-68
2021/07/07 13:03:51;;;;;;;16.33;12.60;;;27.70;70.80;;;;;;4875226;29;20061;-68
2021/07/07 13:06:22;;;;;;;13.65;12.25;;;27.70;70.80;;;;;;4875371;29;20076;-68
2021/07/07 13:08:59;;;;;;;14.35;13.05;;;27.70;71.00;;;;;;4875130;29;20065;-68
2021/07/07 13:11:25;;;;;;;14.30;13.02;;;27.70;70.90;;;;;;4877578;29;20057;-68
2021/07/07 13:13:55;;;;;;;14.52;13.10;;;27.70;70.80;;;;;;4876971;29;20057;-68
2021/07/07 13:16:33;;;;;;;14.23;12.90;;;27.70;70.80;;;;;;4875028;29;20088;-68
2021/07/07 13:19:05;;;;;;;13.30;12.00;;;27.70;71.00;;;;;;4880883;29;20087;-68
2021/07/07 13:21:41;;;;;;;14.43;12.95;;;27.70;71.10;;;;;;4881447;29;20536;-68
2021/07/07 13:24:38;;;;;;;17.33;13.43;;;27.70;71.10;;;;;;4873914;29;20156;-68
2021/07/07 13:27:12;;;;;;;13.30;12.00;;;27.70;70.70;;;;;;4874735;29;20061;-68
2021/07/07 13:29:42;;;;;;;14.57;13.27;;;27.70;70.90;;;;;;4874953;29;20096;-68
2021/07/07 13:32:14;;;;;;;14.90;13.40;;;27.70;70.70;;;;;;4874787;29;20145;-68
2021/07/07 13:35:14;;;;;;;13.90;12.80;;;27.70;70.70;;;;;;4874732;29;20144;-68
2021/07/07 13:37:42;;;;;;;14.27;12.55;;;27.70;70.40;;;;;;4866507;29;20069;-68
2021/07/07 13:40:10;;;;;;;14.10;12.77;;;27.70;70.30;;;;;;4886554;29;20087;-68
2021/07/07 13:42:40;;;;;;;12.20;11.00;;;27.70;70.20;;;;;;4885902;29;20084;-68
2021/07/07 13:45:08;;;;;;;12.45;11.45;;;27.70;70.60;;;;;;4881633;29;20069;-67
2021/07/07 13:47:35;;;;;;;14.80;12.93;;;27.70;70.60;;;;;;4876497;29;20131;-68
2021/07/07 13:50:03;;;;;;;13.40;12.27;;;27.80;70.30;;;;;;4893435;29;20076;-68
2021/07/07 13:52:29;;;;;;;13.45;12.32;;;27.80;70.10;;;;;;4893040;29;20063;-68
2021/07/07 13:54:56;;;;;;;13.73;12.43;;;27.80;69.90;;;;;;4892848;29;20135;-67
2021/07/07 13:57:22;;;;;;;13.90;12.70;;;27.70;69.80;;;;;;4893156;29;20071;-68
2021/07/07 13:59:48;;;;;;;12.93;11.05;;;27.80;69.90;;;;;;4893201;29;20538;-67
2021/07/07 14:02:14;;;;;;;15.10;12.63;;;27.80;69.90;;;;;;4893431;29;20487;-68
2021/07/07 14:04:41;;;;;;;14.45;13.05;;;27.80;69.70;;;;;;4891599;29;20064;-68
2021/07/07 14:07:08;;;;;;;13.60;11.93;;;27.70;69.70;;;;;;4892104;29;20462;-68
2021/07/07 14:09:35;;;;;;;12.88;11.75;;;27.70;69.60;;;;;;4893308;29;20144;-68
2021/07/07 14:12:03;;;;;;;15.75;12.95;;;27.80;69.70;;;;;;4879373;29;20184;-68
2021/07/07 14:14:32;;;;;;;12.68;11.70;;;27.80;69.60;;;;;;4874145;29;20061;-68
2021/07/07 14:17:03;;;;;;;13.65;12.27;;;27.80;70.20;;;;;;4874136;29;20592;-68
2021/07/07 14:19:29;;;;;;;13.98;12.60;;;27.80;69.70;;;;;;4883629;29;20079;-68
2021/07/07 14:21:58;;;;;;;12.35;11.13;;;27.80;69.60;;;;;;4875750;29;20092;-68
2021/07/07 14:24:24;;;;;;;12.32;11.30;;;27.80;69.50;;;;;;4874639;29;20112;-68
2021/07/07 14:26:50;;;;;;;13.32;11.93;;;27.80;69.40;;;;;;4874725;29;20541;-68
2021/07/07 14:29:16;;;;;;;13.52;12.15;;;27.80;69.40;;;;;;4872985;29;20112;-68
2021/07/07 14:31:42;;;;;;;13.88;12.48;;;27.80;69.40;;;;;;4874319;29;20140;-68
2021/07/07 14:34:08;;;;;;;12.70;11.60;;;27.80;69.40;;;;;;4873002;29;20143;-68
2021/07/07 14:36:34;;;;;;;14.10;12.57;;;27.80;69.40;;;;;;4874314;29;20144;-68
2021/07/07 14:39:01;;;;;;;13.95;12.52;;;27.80;69.40;;;;;;4874008;29;20515;-68
2021/07/07 14:41:33;;;;;;;13.63;11.25;;;27.80;69.40;;;;;;4884909;29;20060;-68
2021/07/07 14:44:01;;;;;;;12.85;11.65;;;27.80;69.40;;;;;;4874016;29;20433;-68
2021/07/07 14:46:28;;;;;;;12.63;11.52;;;27.80;69.40;;;;;;4877708;29;20662;-68
2021/07/07 14:48:54;;;;;;;12.98;11.60;;;27.80;69.40;;;;;;4876776;29;20061;-68
2021/07/07 14:51:23;;;;;;;15.50;12.15;;;27.80;69.40;;;;;;4877765;29;20448;-68
2021/07/07 14:53:49;;;;;;;13.60;11.88;;;27.80;69.40;;;;;;4876416;29;20053;-68
2021/07/07 14:56:15;;;;;;;16.85;12.05;;;27.80;69.40;;;;;;4877760;29;20088;-68
2021/07/07 14:58:41;;;;;;;13.20;11.93;;;27.80;69.30;;;;;;4877740;29;20147;-68
2021/07/07 15:01:08;;;;;;;13.07;11.77;;;27.80;69.30;;;;;;4877450;29;20116;-68
2021/07/07 15:03:34;;;;;;;13.05;11.40;;;27.80;69.30;;;;;;4888490;29;20111;-68
2021/07/07 15:06:01;;;;;;;16.52;11.85;;;27.80;69.30;;;;;;4877419;29;20165;-68
2021/07/07 15:08:27;;;;;;;13.55;12.32;;;27.80;69.30;;;;;;4877549;29;20136;-68
2021/07/07 15:10:53;;;;;;;15.05;13.52;;;27.80;69.30;;;;;;4881923;29;20143;-68
2021/07/07 15:13:19;;;;;;;12.43;11.32;;;27.80;69.30;;;;;;4877692;29;20060;-68
2021/07/07 15:15:45;;;;;;;13.35;12.02;;;27.80;69.40;;;;;;4877228;29;20057;-68
2021/07/07 15:18:11;;;;;;;14.13;11.50;;;27.80;69.40;;;;;;4877257;29;20072;-68
2021/07/07 15:20:39;;;;;;;14.00;12.20;;;27.80;69.50;;;;;;4889706;29;20071;-68
2021/07/07 15:23:06;;;;;;;13.52;12.13;;;27.80;69.50;;;;;;4877494;29;20105;-68
2021/07/07 15:25:33;;;;;;;14.15;12.85;;;27.80;69.30;;;;;;4876933;29;20061;-68
2021/07/07 15:27:59;;;;;;;13.85;12.38;;;27.80;69.40;;;;;;4877028;29;20545;-68
2021/07/07 15:30:25;;;;;;;13.75;11.90;;;27.80;69.40;;;;;;4876215;29;20149;-68
2021/07/07 15:32:52;;;;;;;17.00;12.68;;;27.80;69.40;;;;;;4877267;29;20509;-68
2021/07/07 15:35:18;;;;;;;12.82;11.63;;;27.80;69.40;;;;;;4877325;29;20577;-68
2021/07/07 15:37:45;;;;;;;14.23;13.00;;;27.80;69.50;;;;;;4877036;29;20069;-68
2021/07/07 15:40:12;;;;;;;13.77;12.32;;;27.80;69.40;;;;;;4882638;29;20120;-68
2021/07/07 15:42:38;;;;;;;14.20;12.70;;;27.80;69.50;;;;;;4881302;29;20545;-68
2021/07/07 15:45:06;;;;;;;12.88;11.70;;;27.90;69.50;;;;;;4876729;29;20415;-68
2021/07/07 15:47:32;;;;;;;14.15;12.75;;;27.90;69.60;;;;;;4876669;29;20091;-68
2021/07/07 15:49:59;;;;;;;13.85;12.60;;;27.80;69.60;;;;;;4876770;29;20554;-68
2021/07/07 15:52:25;;;;;;;14.77;12.57;;;27.80;69.70;;;;;;4876787;29;20189;-68
2021/07/07 15:54:51;;;;;;;14.15;12.77;;;27.80;69.70;;;;;;4876502;29;20183;-68
2021/07/07 15:57:16;;;;;;;17.13;12.35;;;27.80;69.70;;;;;;4876537;29;20056;-68
2021/07/07 15:59:43;;;;;;;12.70;11.70;;;27.80;69.70;;;;;;4876707;29;20139;-68
2021/07/07 16:02:09;;;;;;;13.32;12.23;;;27.80;69.80;;;;;;4875181;29;20209;-68
2021/07/07 16:04:35;;;;;;;13.48;12.38;;;27.80;69.80;;;;;;4876413;29;20061;-67
2021/07/07 16:07:01;;;;;;;14.60;13.10;;;27.90;69.80;;;;;;4875175;29;20140;-68
2021/07/07 16:09:27;;;;;;;16.10;13.65;;;27.80;69.80;;;;;;4875296;29;20140;-68
2021/07/07 16:11:53;;;;;;;13.65;12.55;;;27.80;70.40;;;;;;4880622;29;20081;-68
2021/07/07 16:14:19;;;;;;;13.88;12.00;;;27.80;69.80;;;;;;4876501;29;20144;-68
2021/07/07 16:16:46;;;;;;;13.18;11.98;;;27.80;69.90;;;;;;4876407;29;20506;-68
2021/07/07 16:19:14;;;;;;;16.52;12.88;;;27.80;69.90;;;;;;4883695;29;20432;-68
2021/07/07 16:21:40;;;;;;;12.30;11.13;;;27.80;69.90;;;;;;4881080;29;20172;-68
2021/07/07 16:24:07;;;;;;;12.70;11.60;;;27.80;69.90;;;;;;4874965;29;20109;-68